Time;durP1;ratioP1;P1;durP2;ratioP2;P2;SDS_P1;SDS_P2;PMS_P1;PMS_P2;Temp;Humidity;BMP_temperature;BMP_pressure;BME280_temperature;BME280_humidity;BME280_pressure;Samples;Min_cycle;Max_cycle;Signal;HPM_P1;HPM_P2
2021/10/31 00:00:12;;;;;;;35.00;22.60;;;10.20;99.90;;;;;;5097429;28;20210;-73
2021/10/31 00:02:43;;;;;;;34.05;21.88;;;10.10;99.90;;;;;;5096197;28;20194;-71
2021/10/31 00:05:10;;;;;;;29.35;20.65;;;10.10;99.90;;;;;;5097389;28;20231;-73
2021/10/31 00:07:41;;;;;;;36.40;24.52;;;10.10;99.90;;;;;;5097565;28;20203;-73
2021/10/31 00:10:16;;;;;;;34.97;23.48;;;10.00;99.90;;;;;;5097349;28;20672;-73
2021/10/31 00:12:48;;;;;;;33.80;21.48;;;10.00;99.90;;;;;;5097333;28;20587;-71
2021/10/31 00:15:21;;;;;;;33.20;21.20;;;10.00;99.90;;;;;;5097169;28;20203;-73
2021/10/31 00:17:47;;;;;;;30.60;21.58;;;9.90;99.90;;;;;;5097180;28;20242;-71
2021/10/31 00:20:22;;;;;;;38.15;23.67;;;9.90;99.90;;;;;;5097073;28;20203;-73
2021/10/31 00:22:48;;;;;;;39.08;23.65;;;9.80;99.90;;;;;;5096582;28;20174;-73
2021/10/31 00:25:19;;;;;;;35.35;22.98;;;9.80;99.90;;;;;;5096630;28;20533;-73
2021/10/31 00:27:49;;;;;;;35.28;23.23;;;9.80;99.90;;;;;;5096782;28;20236;-73
2021/10/31 00:30:20;;;;;;;35.85;24.33;;;9.70;99.90;;;;;;5096682;28;20639;-74
2021/10/31 00:32:47;;;;;;;32.63;23.60;;;9.70;99.90;;;;;;5096821;28;20687;-70
2021/10/31 00:35:14;;;;;;;36.15;22.75;;;9.70;99.90;;;;;;5115176;28;20656;-71
2021/10/31 00:37:53;;;;;;;34.65;22.55;;;9.70;99.90;;;;;;5096679;28;20639;-73
2021/10/31 00:40:21;;;;;;;38.00;24.05;;;9.70;99.90;;;;;;5096834;28;20200;-71
2021/10/31 00:42:49;;;;;;;34.15;22.92;;;9.70;99.90;;;;;;5096594;28;20172;-70
2021/10/31 00:45:16;;;;;;;37.95;23.73;;;9.70;99.90;;;;;;5096649;28;20298;-71
2021/10/31 00:47:44;;;;;;;31.25;21.35;;;9.70;99.90;;;;;;5097040;28;20262;-71
2021/10/31 00:50:15;;;;;;;37.80;23.13;;;9.60;99.90;;;;;;5096570;28;20211;-72
2021/10/31 00:52:42;;;;;;;39.38;24.42;;;9.60;99.90;;;;;;5096621;28;20214;-73
2021/10/31 00:55:10;;;;;;;39.20;23.65;;;9.60;99.90;;;;;;5096281;28;20214;-73
2021/10/31 00:57:37;;;;;;;41.10;24.98;;;9.60;99.90;;;;;;5096524;28;20171;-69
2021/10/31 01:00:07;;;;;;;38.38;23.77;;;9.50;99.90;;;;;;5096419;28;20227;-71
2021/10/31 01:02:33;;;;;;;36.85;25.65;;;9.50;99.90;;;;;;5096107;28;20723;-71
2021/10/31 01:05:18;;;;;;;39.15;24.45;;;9.40;99.90;;;;;;5096522;28;20207;-73
2021/10/31 01:08:15;;;;;;;33.67;23.52;;;9.40;99.90;;;;;;5095973;28;20179;-72
2021/10/31 01:11:17;;;;;;;38.83;24.17;;;9.30;99.90;;;;;;5096499;28;20612;-71
2021/10/31 01:13:56;;;;;;;36.97;22.60;;;9.30;99.90;;;;;;5096333;28;20187;-70
2021/10/31 01:16:32;;;;;;;38.75;23.75;;;9.30;99.90;;;;;;5096440;28;20652;-71
2021/10/31 01:19:16;;;;;;;37.35;23.30;;;9.30;99.90;;;;;;5096123;28;20260;-70
2021/10/31 01:22:05;;;;;;;35.85;24.10;;;9.30;99.90;;;;;;5095838;28;20587;-71
2021/10/31 01:24:31;;;;;;;40.67;24.30;;;9.30;99.90;;;;;;5095587;28;20345;-71
2021/10/31 01:27:21;;;;;;;35.03;23.67;;;9.20;99.90;;;;;;5092327;28;20318;-73
2021/10/31 01:30:15;;;;;;;36.42;22.95;;;9.20;99.90;;;;;;5092872;28;20207;-71
2021/10/31 01:33:00;;;;;;;38.58;22.88;;;9.30;99.90;;;;;;5092579;28;20259;-73
2021/10/31 01:35:45;;;;;;;31.67;22.90;;;9.30;99.90;;;;;;5094105;28;20669;-73
2021/10/31 01:38:34;;;;;;;32.92;21.98;;;9.30;99.90;;;;;;5092685;28;20660;-73
2021/10/31 01:41:13;;;;;;;39.42;23.27;;;9.30;99.90;;;;;;5092376;28;20295;-71
2021/10/31 01:44:00;;;;;;;34.63;22.65;;;9.30;99.90;;;;;;5092574;28;20206;-73
2021/10/31 01:46:52;;;;;;;35.30;23.42;;;9.30;99.90;;;;;;5092267;28;20653;-73
2021/10/31 01:49:32;;;;;;;34.88;22.75;;;9.20;99.90;;;;;;5092447;28;20188;-73
2021/10/31 01:52:01;;;;;;;36.42;22.92;;;9.20;99.90;;;;;;5092769;28;20212;-71
2021/10/31 01:54:36;;;;;;;37.03;22.92;;;9.20;99.90;;;;;;5093001;28;20241;-71
2021/10/31 01:57:08;;;;;;;36.42;23.15;;;9.20;99.90;;;;;;5092580;28;20224;-71
2021/10/31 01:59:50;;;;;;;42.20;22.33;;;9.10;99.90;;;;;;5092758;28;20200;-71
2021/10/31 02:02:19;;;;;;;33.45;22.17;;;9.10;99.90;;;;;;5092485;28;20200;-71
2021/10/31 02:04:56;;;;;;;35.95;22.30;;;9.10;99.90;;;;;;5092515;28;20211;-73
2021/10/31 02:07:35;;;;;;;33.80;22.80;;;9.10;99.90;;;;;;5092666;28;20176;-73
2021/10/31 02:10:07;;;;;;;34.08;21.38;;;9.10;99.90;;;;;;5092462;28;20550;-74
2021/10/31 02:12:42;;;;;;;31.95;21.80;;;9.10;99.90;;;;;;5092569;28;20265;-71
2021/10/31 02:15:15;;;;;;;32.88;21.42;;;9.10;99.90;;;;;;5095733;28;20200;-73
2021/10/31 02:17:42;;;;;;;33.15;21.25;;;9.10;99.90;;;;;;5096730;28;20172;-71
2021/10/31 02:20:15;;;;;;;38.05;22.88;;;9.10;99.90;;;;;;5095878;28;20212;-73
2021/10/31 02:22:49;;;;;;;36.10;22.92;;;9.10;99.90;;;;;;5097567;28;20632;-73
2021/10/31 02:25:18;;;;;;;31.67;19.95;;;9.10;99.90;;;;;;5096377;28;20215;-70
2021/10/31 02:27:49;;;;;;;36.13;21.87;;;9.10;99.90;;;;;;5100391;28;20175;-71
2021/10/31 02:30:15;;;;;;;33.92;20.38;;;9.00;99.90;;;;;;5099677;28;20422;-71
2021/10/31 02:32:54;;;;;;;36.08;21.83;;;9.00;99.90;;;;;;5099206;28;20216;-73
2021/10/31 02:35:22;;;;;;;31.77;19.45;;;9.00;99.90;;;;;;5099537;28;20195;-71
2021/10/31 02:38:02;;;;;;;29.52;20.20;;;9.00;99.90;;;;;;5099022;28;20183;-73
2021/10/31 02:40:35;;;;;;;36.35;22.10;;;9.00;99.90;;;;;;5098841;28;20199;-71
2021/10/31 02:43:05;;;;;;;30.73;20.35;;;8.90;99.90;;;;;;5098983;28;20233;-69
2021/10/31 02:45:32;;;;;;;33.42;20.75;;;8.90;99.90;;;;;;5099149;28;20230;-71
2021/10/31 02:48:04;;;;;;;32.92;21.02;;;8.90;99.90;;;;;;5099153;28;20208;-69
2021/10/31 02:50:41;;;;;;;30.48;20.13;;;8.90;99.90;;;;;;5098570;28;20704;-74
2021/10/31 02:53:36;;;;;;;36.17;21.05;;;8.90;99.90;;;;;;5098896;28;20676;-71
2021/10/31 02:56:32;;;;;;;31.13;19.63;;;8.90;99.90;;;;;;5098917;28;20203;-70
2021/10/31 02:59:11;;;;;;;32.58;19.45;;;8.90;99.90;;;;;;5098620;28;20180;-73
2021/10/31 03:01:49;;;;;;;34.53;20.90;;;8.90;99.90;;;;;;5098558;28;20188;-73
2021/10/31 03:04:21;;;;;;;28.73;19.15;;;8.90;99.90;;;;;;5098516;28;20196;-72
2021/10/31 03:06:53;;;;;;;30.80;19.13;;;8.90;99.90;;;;;;5098645;28;20211;-73
2021/10/31 03:09:20;;;;;;;30.40;19.95;;;8.90;99.90;;;;;;5098316;28;20259;-70
2021/10/31 03:11:46;;;;;;;33.00;20.95;;;8.90;99.90;;;;;;5098629;28;20211;-71
2021/10/31 03:14:13;;;;;;;27.60;19.88;;;8.80;99.90;;;;;;5098758;28;20274;-70
2021/10/31 03:16:43;;;;;;;33.35;19.50;;;8.80;99.90;;;;;;5098622;28;20183;-73
2021/10/31 03:19:11;;;;;;;30.13;18.40;;;8.80;99.90;;;;;;5098035;28;20176;-71
2021/10/31 03:21:49;;;;;;;31.10;18.13;;;8.80;99.90;;;;;;5098226;28;20211;-73
2021/10/31 03:24:17;;;;;;;31.63;19.50;;;8.90;99.90;;;;;;5098003;28;20294;-73
2021/10/31 03:26:47;;;;;;;26.52;18.17;;;8.90;99.90;;;;;;5098118;28;20235;-69
2021/10/31 03:29:15;;;;;;;30.30;18.35;;;8.90;99.90;;;;;;5098137;28;20547;-71
2021/10/31 03:31:57;;;;;;;38.28;20.25;;;8.90;99.90;;;;;;5098363;28;20211;-72
2021/10/31 03:34:34;;;;;;;31.83;19.65;;;8.80;99.90;;;;;;5097924;28;20716;-70
2021/10/31 03:37:08;;;;;;;30.75;20.13;;;8.80;99.90;;;;;;5098051;28;20168;-69
2021/10/31 03:39:46;;;;;;;35.42;20.05;;;8.80;99.90;;;;;;5097949;28;20219;-73
2021/10/31 03:42:24;;;;;;;35.05;20.98;;;8.80;99.90;;;;;;5097957;28;20175;-73
2021/10/31 03:44:51;;;;;;;31.75;19.95;;;8.80;99.90;;;;;;5097641;28;20214;-69
2021/10/31 03:47:23;;;;;;;32.05;20.80;;;8.80;99.90;;;;;;5097819;28;20190;-70
2021/10/31 03:49:52;;;;;;;30.98;19.48;;;8.70;99.90;;;;;;5097572;28;20210;-70
2021/10/31 03:52:21;;;;;;;33.40;19.85;;;8.70;99.90;;;;;;5097846;28;20206;-70
2021/10/31 03:54:48;;;;;;;28.40;19.17;;;8.60;99.90;;;;;;5097980;28;20196;-71
2021/10/31 03:57:16;;;;;;;33.13;20.95;;;8.60;99.90;;;;;;5097696;28;20554;-71
2021/10/31 03:59:44;;;;;;;30.92;20.30;;;8.60;99.90;;;;;;5098019;28;20577;-72
2021/10/31 04:02:10;;;;;;;34.50;21.98;;;8.60;99.90;;;;;;5097604;28;20175;-70
2021/10/31 04:04:40;;;;;;;33.58;20.88;;;8.50;99.90;;;;;;5097562;28;20277;-71
2021/10/31 04:07:11;;;;;;;35.92;21.02;;;8.50;99.90;;;;;;5097637;28;20178;-73
2021/10/31 04:09:38;;;;;;;29.00;19.10;;;8.40;99.90;;;;;;5097864;28;20200;-71
2021/10/31 04:12:09;;;;;;;31.17;18.87;;;8.40;99.90;;;;;;5097371;28;20647;-74
2021/10/31 04:14:38;;;;;;;27.77;17.88;;;8.40;99.90;;;;;;5097262;28;20424;-71
2021/10/31 04:17:12;;;;;;;29.60;18.25;;;8.30;99.90;;;;;;5097273;28;20167;-72
2021/10/31 04:19:41;;;;;;;28.63;18.83;;;8.30;99.90;;;;;;5096954;28;20192;-71
2021/10/31 04:22:08;;;;;;;30.35;19.02;;;8.20;99.90;;;;;;5097025;28;20295;-70
2021/10/31 04:24:34;;;;;;;29.58;18.75;;;8.10;99.90;;;;;;5097219;28;20274;-71
2021/10/31 04:27:15;;;;;;;31.93;19.37;;;8.10;99.90;;;;;;5096890;28;20251;-72
2021/10/31 04:29:44;;;;;;;30.50;19.52;;;8.00;99.90;;;;;;5096992;28;20618;-71
2021/10/31 04:32:15;;;;;;;36.72;24.08;;;7.90;99.90;;;;;;5096665;28;20281;-70
2021/10/31 04:34:43;;;;;;;39.45;23.55;;;7.90;99.90;;;;;;5097086;28;20591;-70
2021/10/31 04:37:09;;;;;;;37.85;21.80;;;7.90;99.90;;;;;;5096077;28;20176;-70
2021/10/31 04:39:35;;;;;;;35.80;22.17;;;7.80;99.90;;;;;;5096707;28;20196;-71
2021/10/31 04:42:06;;;;;;;48.40;27.43;;;7.80;99.90;;;;;;5096725;28;20389;-73
2021/10/31 04:44:33;;;;;;;46.80;31.70;;;7.80;99.90;;;;;;5096799;28;20432;-70
2021/10/31 04:47:01;;;;;;;64.47;36.70;;;7.90;99.90;;;;;;5096833;28;20195;-71
2021/10/31 04:49:33;;;;;;;55.08;31.55;;;7.80;99.90;;;;;;5096095;28;20199;-72
2021/10/31 04:52:08;;;;;;;46.15;26.85;;;7.90;99.90;;;;;;5095685;28;20765;-72
2021/10/31 04:54:48;;;;;;;38.42;23.60;;;7.90;99.90;;;;;;5096733;28;20676;-73
2021/10/31 04:57:16;;;;;;;42.47;22.83;;;7.90;99.90;;;;;;5096743;28;20221;-72
2021/10/31 04:59:42;;;;;;;38.10;23.75;;;7.90;99.90;;;;;;5095842;28;20230;-71
2021/10/31 05:02:09;;;;;;;39.60;23.20;;;7.90;99.90;;;;;;5096819;28;20198;-73
2021/10/31 05:04:41;;;;;;;40.70;23.77;;;7.80;99.90;;;;;;5096377;28;20199;-72
2021/10/31 05:07:13;;;;;;;36.17;24.02;;;7.90;99.90;;;;;;5096389;28;20205;-72
2021/10/31 05:09:39;;;;;;;41.47;22.88;;;7.90;99.90;;;;;;5096623;28;20286;-71
2021/10/31 05:12:06;;;;;;;37.27;21.80;;;7.90;99.90;;;;;;5096772;28;20772;-71
2021/10/31 05:14:42;;;;;;;35.90;21.30;;;7.90;99.90;;;;;;5095855;28;20906;-73
2021/10/31 05:17:09;;;;;;;35.42;22.20;;;7.90;99.90;;;;;;5096119;28;20229;-73
2021/10/31 05:19:35;;;;;;;37.85;22.80;;;7.90;99.90;;;;;;5096683;28;20201;-71
2021/10/31 05:22:02;;;;;;;35.30;22.85;;;7.90;99.90;;;;;;5096019;28;20243;-71
2021/10/31 05:24:28;;;;;;;40.95;22.67;;;7.90;99.90;;;;;;5095662;28;20192;-73
2021/10/31 05:26:54;;;;;;;34.58;21.70;;;7.80;99.90;;;;;;5095574;28;20629;-71
2021/10/31 05:29:21;;;;;;;43.83;25.60;;;7.90;99.90;;;;;;5096021;28;20214;-71
2021/10/31 05:31:49;;;;;;;40.72;26.15;;;7.90;99.90;;;;;;5096171;28;20222;-71
2021/10/31 05:34:42;;;;;;;43.50;26.52;;;7.90;99.90;;;;;;5095857;28;20200;-73
2021/10/31 05:37:11;;;;;;;42.35;25.65;;;7.90;99.90;;;;;;5095313;28;20222;-73
2021/10/31 05:39:42;;;;;;;38.67;24.52;;;7.80;99.90;;;;;;5096001;28;20283;-72
2021/10/31 05:42:09;;;;;;;47.83;27.67;;;7.80;99.90;;;;;;5095865;28;20218;-71
2021/10/31 05:44:36;;;;;;;36.90;23.60;;;7.80;99.90;;;;;;5095930;28;20191;-71
2021/10/31 05:47:12;;;;;;;49.10;25.20;;;7.80;99.90;;;;;;5095864;28;20176;-72
2021/10/31 05:49:41;;;;;;;42.90;26.60;;;7.80;99.90;;;;;;5118202;28;20691;-71
2021/10/31 05:52:08;;;;;;;43.05;25.55;;;7.70;99.90;;;;;;5100013;28;20690;-71
2021/10/31 05:54:36;;;;;;;40.03;24.55;;;7.70;99.90;;;;;;5099896;28;20195;-71
2021/10/31 05:57:03;;;;;;;42.33;25.50;;;7.70;99.90;;;;;;5100008;28;20236;-71
2021/10/31 05:59:35;;;;;;;44.55;25.83;;;7.70;99.90;;;;;;5099914;28;20203;-72
2021/10/31 06:02:10;;;;;;;40.92;24.42;;;7.80;99.90;;;;;;5099925;28;20647;-71
2021/10/31 06:04:51;;;;;;;43.78;26.42;;;7.80;99.90;;;;;;5099688;28;20569;-73
2021/10/31 06:07:19;;;;;;;45.53;28.05;;;7.80;99.90;;;;;;5100070;28;20640;-72
2021/10/31 06:09:47;;;;;;;44.45;26.40;;;7.80;99.90;;;;;;5099839;28;20681;-73
2021/10/31 06:12:14;;;;;;;39.92;25.00;;;7.80;99.90;;;;;;5099510;28;20566;-70
2021/10/31 06:14:47;;;;;;;38.80;25.02;;;7.90;99.90;;;;;;5099699;28;20202;-73
2021/10/31 06:17:14;;;;;;;39.55;24.83;;;7.90;99.90;;;;;;5099624;28;20172;-73
2021/10/31 06:19:42;;;;;;;43.40;24.52;;;8.00;99.90;;;;;;5099764;28;20210;-70
2021/10/31 06:22:09;;;;;;;39.13;24.00;;;8.10;99.90;;;;;;5099621;28;20629;-70
2021/10/31 06:24:40;;;;;;;40.03;24.63;;;8.20;99.90;;;;;;5099255;28;20199;-73
2021/10/31 06:27:09;;;;;;;36.05;23.38;;;8.20;99.90;;;;;;5099195;28;20227;-73
2021/10/31 06:29:36;;;;;;;36.70;23.02;;;8.30;99.90;;;;;;5099340;28;20187;-73
2021/10/31 06:32:05;;;;;;;49.38;26.55;;;8.40;99.90;;;;;;5099154;28;20207;-72
2021/10/31 06:34:31;;;;;;;37.72;23.45;;;8.50;99.90;;;;;;5098991;28;20196;-70
2021/10/31 06:36:57;;;;;;;37.10;24.43;;;8.50;99.90;;;;;;5099037;28;20655;-70
2021/10/31 06:39:25;;;;;;;37.47;21.98;;;8.70;99.90;;;;;;5099002;28;20395;-73
2021/10/31 06:41:55;;;;;;;38.63;23.30;;;8.70;99.90;;;;;;5098541;28;20184;-73
2021/10/31 06:44:25;;;;;;;37.85;23.30;;;8.80;99.90;;;;;;5098821;28;20239;-70
2021/10/31 06:46:52;;;;;;;30.52;20.85;;;9.00;99.90;;;;;;5098880;28;20683;-70
2021/10/31 06:49:19;;;;;;;33.75;20.95;;;9.10;99.90;;;;;;5099240;28;20202;-71
2021/10/31 06:51:53;;;;;;;37.33;22.55;;;9.20;99.90;;;;;;5099079;28;20735;-72
2021/10/31 06:54:21;;;;;;;30.52;20.58;;;9.30;99.90;;;;;;5098853;28;20202;-73
2021/10/31 06:56:47;;;;;;;29.65;19.88;;;9.40;99.90;;;;;;5098887;28;20276;-70
2021/10/31 06:59:16;;;;;;;29.90;19.40;;;9.50;99.90;;;;;;5098115;28;20203;-73
2021/10/31 07:01:44;;;;;;;33.85;19.20;;;9.70;99.90;;;;;;5098729;28;21000;-71
2021/10/31 07:04:10;;;;;;;32.22;19.33;;;9.80;99.90;;;;;;5097954;28;20172;-72
2021/10/31 07:06:49;;;;;;;31.02;20.67;;;10.10;99.90;;;;;;5097620;28;20192;-73
2021/10/31 07:09:18;;;;;;;26.80;19.00;;;10.20;99.90;;;;;;5116978;28;20570;-70
2021/10/31 07:11:47;;;;;;;28.25;18.80;;;10.50;99.90;;;;;;5098525;28;20711;-71
2021/10/31 07:14:14;;;;;;;27.63;17.83;;;10.60;99.90;;;;;;5097937;28;20191;-73
2021/10/31 07:16:40;;;;;;;32.67;19.85;;;10.80;99.90;;;;;;5098068;28;20195;-71
2021/10/31 07:19:17;;;;;;;33.30;20.02;;;11.00;99.90;;;;;;5098382;28;20622;-73
2021/10/31 07:21:45;;;;;;;26.05;17.55;;;11.20;99.90;;;;;;5098048;28;20266;-72
2021/10/31 07:24:15;;;;;;;24.77;17.17;;;11.40;99.90;;;;;;5098114;28;20236;-73
2021/10/31 07:26:46;;;;;;;26.00;17.30;;;11.60;99.90;;;;;;5098014;28;20227;-73
2021/10/31 07:29:15;;;;;;;22.48;15.90;;;11.90;99.90;;;;;;5097989;28;20182;-71
2021/10/31 07:31:48;;;;;;;22.20;16.08;;;12.30;99.90;;;;;;5098345;28;20255;-74
2021/10/31 07:34:24;;;;;;;20.80;16.40;;;12.80;99.90;;;;;;5098273;28;20187;-74
2021/10/31 07:36:53;;;;;;;22.20;15.57;;;13.50;99.90;;;;;;5098250;28;20494;-71
2021/10/31 07:39:20;;;;;;;20.40;15.27;;;14.10;99.90;;;;;;5098052;28;20431;-70
2021/10/31 07:41:55;;;;;;;20.30;15.20;;;14.90;99.90;;;;;;5097841;28;20440;-73
2021/10/31 07:44:25;;;;;;;20.07;16.13;;;15.70;99.90;;;;;;5098039;28;20439;-71
2021/10/31 07:46:55;;;;;;;18.83;14.40;;;16.60;99.90;;;;;;5116362;28;20865;-74
2021/10/31 07:49:23;;;;;;;20.40;15.50;;;17.30;99.90;;;;;;5097397;28;20850;-71
2021/10/31 07:52:02;;;;;;;19.37;14.40;;;18.00;99.90;;;;;;5098126;28;20468;-74
2021/10/31 07:54:29;;;;;;;16.83;14.70;;;18.40;99.90;;;;;;5097616;28;20432;-75
2021/10/31 07:56:59;;;;;;;17.77;14.70;;;18.70;99.90;;;;;;5097780;28;20423;-71
2021/10/31 07:59:32;;;;;;;20.23;15.70;;;18.90;99.90;;;;;;5097413;28;20949;-74
2021/10/31 08:02:07;;;;;;;21.93;14.93;;;19.20;99.90;;;;;;5097583;28;20423;-74
2021/10/31 08:04:37;;;;;;;20.00;14.83;;;19.70;99.90;;;;;;5097409;28;20507;-74
2021/10/31 08:07:07;;;;;;;21.03;15.10;;;20.30;99.90;;;;;;5097748;28;20413;-74
2021/10/31 08:09:34;;;;;;;17.77;13.50;;;20.90;98.60;;;;;;5097300;28;20467;-71
2021/10/31 08:12:11;;;;;;;17.30;13.33;;;21.30;96.90;;;;;;5096253;28;20473;-74
2021/10/31 08:14:47;;;;;;;15.83;12.10;;;21.40;96.00;;;;;;5097212;28;20445;-73
2021/10/31 08:17:16;;;;;;;15.53;13.00;;;21.60;95.30;;;;;;5096982;28;20475;-71
2021/10/31 08:19:44;;;;;;;15.97;12.53;;;21.80;94.70;;;;;;5097388;28;20882;-74
2021/10/31 08:22:10;;;;;;;16.97;13.17;;;21.70;93.70;;;;;;5115517;28;20545;-71
2021/10/31 08:25:00;;;;;;;14.30;11.67;;;21.50;93.90;;;;;;5096796;28;20480;-72
2021/10/31 08:27:34;;;;;;;16.20;12.10;;;21.30;94.00;;;;;;5097240;28;20813;-71
2021/10/31 08:30:04;;;;;;;14.90;12.77;;;20.80;94.40;;;;;;5096577;28;20452;-74
2021/10/31 08:32:38;;;;;;;15.13;12.10;;;20.30;94.30;;;;;;5096904;28;20490;-69
2021/10/31 08:35:10;;;;;;;16.10;12.63;;;19.80;94.60;;;;;;5096945;28;20440;-73
2021/10/31 08:37:40;;;;;;;16.57;13.03;;;19.20;95.00;;;;;;5097300;28;20473;-75
2021/10/31 08:40:13;;;;;;;14.23;12.57;;;18.60;95.80;;;;;;5096735;28;20499;-74
2021/10/31 08:42:40;;;;;;;18.90;14.17;;;18.10;96.50;;;;;;5096901;28;20412;-71
2021/10/31 08:45:09;;;;;;;14.50;12.77;;;17.80;96.90;;;;;;5096678;28;20454;-71
2021/10/31 08:47:38;;;;;;;15.10;11.40;;;17.40;97.40;;;;;;5096874;28;20409;-70
2021/10/31 08:50:05;;;;;;;14.67;11.60;;;17.10;97.90;;;;;;5096722;28;20813;-71
2021/10/31 08:52:46;;;;;;;14.00;11.60;;;16.80;98.00;;;;;;5096586;28;20478;-74
2021/10/31 08:55:17;;;;;;;19.30;13.00;;;16.60;98.40;;;;;;5095943;28;20487;-71
2021/10/31 08:57:43;;;;;;;17.00;12.43;;;16.50;98.50;;;;;;5096682;28;20412;-74
2021/10/31 09:00:21;;;;;;;17.80;12.37;;;16.40;98.90;;;;;;5095639;28;20436;-74
2021/10/31 09:02:47;;;;;;;16.37;12.77;;;16.40;98.80;;;;;;5096391;28;20908;-71
2021/10/31 09:05:14;;;;;;;14.70;11.40;;;16.30;98.70;;;;;;5096343;28;20462;-71
2021/10/31 09:07:46;;;;;;;14.30;11.87;;;16.20;98.90;;;;;;5096722;28;20487;-73
2021/10/31 09:10:12;;;;;;;14.10;10.70;;;16.00;99.40;;;;;;5096257;28;20539;-71
2021/10/31 09:12:38;;;;;;;13.70;11.17;;;15.80;99.20;;;;;;5096184;28;20517;-70
2021/10/31 09:15:09;;;;;;;14.73;10.70;;;15.70;99.90;;;;;;5096116;28;20789;-74
2021/10/31 09:17:39;;;;;;;14.00;10.80;;;15.60;99.90;;;;;;5114918;28;20848;-74
2021/10/31 09:20:06;;;;;;;17.47;12.40;;;15.70;99.90;;;;;;5097126;28;20968;-69
2021/10/31 09:22:34;;;;;;;16.90;11.07;;;15.90;99.90;;;;;;5095165;28;20418;-72
2021/10/31 09:25:01;;;;;;;13.90;11.17;;;16.10;99.90;;;;;;5095843;28;20440;-71
2021/10/31 09:27:42;;;;;;;17.33;11.73;;;16.50;99.90;;;;;;5095879;28;20475;-74
2021/10/31 09:30:27;;;;;;;16.60;12.27;;;16.90;99.20;;;;;;5096006;28;20459;-74
2021/10/31 09:32:57;;;;;;;13.60;11.37;;;17.10;98.70;;;;;;5096262;28;20467;-71
2021/10/31 09:35:44;;;;;;;13.63;9.80;;;17.20;98.50;;;;;;5096153;28;20525;-74
2021/10/31 09:38:12;;;;;;;16.10;11.13;;;17.20;98.30;;;;;;5095936;28;20411;-71
2021/10/31 09:40:45;;;;;;;13.60;11.73;;;17.00;98.00;;;;;;5095643;28;20555;-74
2021/10/31 09:43:14;;;;;;;16.40;11.87;;;16.90;98.40;;;;;;5095913;28;20415;-70
2021/10/31 09:45:45;;;;;;;15.70;11.50;;;16.90;98.60;;;;;;5096003;28;20512;-74
2021/10/31 09:48:29;;;;;;;15.23;12.30;;;16.70;98.90;;;;;;5096492;28;20409;-74
2021/10/31 09:51:01;;;;;;;13.77;11.83;;;16.60;99.20;;;;;;5095644;28;20459;-71
2021/10/31 09:53:28;;;;;;;12.73;11.13;;;16.50;99.30;;;;;;5095783;28;20467;-70
2021/10/31 09:55:56;;;;;;;13.13;10.90;;;16.50;99.10;;;;;;5095790;28;20443;-71
2021/10/31 09:58:33;;;;;;;18.27;11.43;;;16.40;99.50;;;;;;5095997;28;20408;-74
2021/10/31 10:01:06;;;;;;;15.67;11.47;;;16.40;99.00;;;;;;5096327;28;20445;-71
2021/10/31 10:06:48;;;;;;;16.90;13.23;;;16.30;99.50;;;;;;5114368;28;20825;-74
2021/10/31 10:09:15;;;;;;;14.83;11.87;;;16.30;99.60;;;;;;5014950;28;20450;-70
2021/10/31 10:11:48;;;;;;;13.43;10.83;;;16.30;99.30;;;;;;5014503;28;20482;-74
2021/10/31 10:14:31;;;;;;;16.10;12.73;;;16.30;99.40;;;;;;5112404;28;20421;-74
2021/10/31 10:17:00;;;;;;;20.23;12.73;;;16.30;99.60;;;;;;5095680;28;20412;-71
2021/10/31 10:19:31;;;;;;;15.37;12.27;;;16.30;99.90;;;;;;5095134;28;20553;-72
2021/10/31 10:22:06;;;;;;;15.73;12.17;;;16.40;99.90;;;;;;5095610;28;20408;-71
2021/10/31 10:24:45;;;;;;;15.90;11.23;;;16.40;99.20;;;;;;5095150;28;20443;-74
2021/10/31 10:27:14;;;;;;;12.87;10.57;;;16.50;99.20;;;;;;5094338;28;20459;-74
2021/10/31 10:29:43;;;;;;;14.30;10.47;;;16.50;99.10;;;;;;5095471;28;20432;-74
2021/10/31 10:32:13;;;;;;;13.17;10.20;;;16.50;99.20;;;;;;5095545;28;20475;-71
2021/10/31 10:34:53;;;;;;;13.93;11.10;;;16.50;99.50;;;;;;5095687;28;20925;-71
2021/10/31 10:37:27;;;;;;;12.00;10.33;;;16.50;98.90;;;;;;5099394;28;20975;-72
2021/10/31 10:40:06;;;;;;;14.00;9.90;;;16.50;99.10;;;;;;5098995;28;20451;-71
2021/10/31 10:42:38;;;;;;;14.33;11.40;;;16.50;99.10;;;;;;5099522;28;20411;-71
2021/10/31 10:45:21;;;;;;;18.90;12.90;;;16.50;99.00;;;;;;5099398;28;20971;-71
2021/10/31 10:47:58;;;;;;;14.17;9.87;;;16.60;99.00;;;;;;5099205;28;20416;-73
2021/10/31 10:50:28;;;;;;;14.30;11.67;;;16.70;98.70;;;;;;5099070;28;20455;-74
2021/10/31 10:52:58;;;;;;;14.27;10.27;;;16.70;98.20;;;;;;5098966;28;20477;-74
2021/10/31 10:55:27;;;;;;;12.40;10.70;;;16.70;98.40;;;;;;5098971;28;20952;-71
2021/10/31 10:58:08;;;;;;;11.97;9.47;;;16.70;98.50;;;;;;5099216;28;20980;-73
2021/10/31 11:00:59;;;;;;;12.17;10.87;;;16.60;98.20;;;;;;5098826;28;20452;-74
2021/10/31 11:03:35;;;;;;;11.50;9.50;;;16.60;98.60;;;;;;5099258;28;20450;-74
2021/10/31 11:06:05;;;;;;;11.87;9.33;;;16.70;98.40;;;;;;5099000;28;20530;-72
2021/10/31 11:08:32;;;;;;;12.67;10.20;;;16.70;98.40;;;;;;5098650;28;20412;-74
2021/10/31 11:11:21;;;;;;;10.03;8.93;;;16.80;98.20;;;;;;5116986;28;21013;-75
2021/10/31 11:13:52;;;;;;;11.10;9.90;;;16.80;98.30;;;;;;5098497;28;20471;-71
2021/10/31 11:16:22;;;;;;;13.03;10.60;;;16.90;98.20;;;;;;5097640;28;20452;-71
2021/10/31 11:18:50;;;;;;;11.20;9.33;;;16.90;98.10;;;;;;5098386;28;20416;-71
2021/10/31 11:21:19;;;;;;;11.00;8.90;;;16.90;98.00;;;;;;5098358;28;20448;-72
2021/10/31 11:23:58;;;;;;;13.03;10.00;;;17.00;98.00;;;;;;5098155;28;20460;-74
2021/10/31 11:26:39;;;;;;;13.80;10.90;;;16.90;98.00;;;;;;5094946;28;20319;-75
2021/10/31 11:29:07;;;;;;;10.93;9.73;;;16.90;98.10;;;;;;5093841;28;20917;-70
2021/10/31 11:31:35;;;;;;;11.83;9.17;;;16.90;98.30;;;;;;5093225;28;20612;-72
2021/10/31 11:34:10;;;;;;;12.67;9.83;;;16.90;98.00;;;;;;5092942;28;20987;-75
2021/10/31 11:36:38;;;;;;;12.10;9.50;;;17.00;97.90;;;;;;5093251;28;20931;-72
2021/10/31 11:39:11;;;;;;;14.30;9.67;;;17.00;98.10;;;;;;5093052;28;20764;-76
2021/10/31 11:41:41;;;;;;;11.13;9.37;;;17.00;97.90;;;;;;5093117;28;20441;-74
2021/10/31 11:44:13;;;;;;;15.50;9.10;;;17.00;97.90;;;;;;5088870;28;20428;-74
2021/10/31 11:46:46;;;;;;;12.93;9.83;;;17.00;98.10;;;;;;5094093;28;20527;-74
2021/10/31 11:49:15;;;;;;;12.57;9.77;;;17.00;97.90;;;;;;5093869;28;20420;-74
2021/10/31 11:51:49;;;;;;;13.17;9.80;;;17.10;97.90;;;;;;5094765;28;20429;-71
2021/10/31 11:54:28;;;;;;;12.43;9.13;;;17.10;97.80;;;;;;5094435;28;20501;-73
2021/10/31 11:57:23;;;;;;;11.57;9.63;;;17.10;98.00;;;;;;5094389;28;20416;-72
2021/10/31 12:00:29;;;;;;;12.90;9.80;;;17.10;97.70;;;;;;5094060;28;21026;-74
2021/10/31 12:03:01;;;;;;;11.23;9.07;;;17.10;98.20;;;;;;5016889;28;20431;-72
2021/10/31 12:05:39;;;;;;;12.27;9.57;;;17.20;97.90;;;;;;5016555;28;20502;-75
2021/10/31 12:08:09;;;;;;;13.47;9.50;;;17.20;97.80;;;;;;5062490;28;20409;-74
2021/10/31 12:10:44;;;;;;;11.57;9.33;;;17.20;97.90;;;;;;5093977;28;20495;-75
2021/10/31 12:13:23;;;;;;;12.70;8.67;;;17.20;97.80;;;;;;5093970;28;20558;-74
2021/10/31 12:16:17;;;;;;;14.83;10.17;;;17.30;97.70;;;;;;5093788;28;20949;-71
2021/10/31 12:19:08;;;;;;;12.07;9.20;;;17.30;97.80;;;;;;5091827;28;20486;-72
2021/10/31 12:21:40;;;;;;;11.90;9.70;;;17.30;97.90;;;;;;5093737;28;20441;-75
2021/10/31 12:24:13;;;;;;;11.97;9.67;;;17.30;97.80;;;;;;5093815;28;20501;-75
2021/10/31 12:26:45;;;;;;;13.97;11.37;;;17.40;97.50;;;;;;5093769;28;20827;-75
2021/10/31 12:29:16;;;;;;;12.10;9.30;;;17.50;97.40;;;;;;5093766;28;20421;-74
2021/10/31 12:31:59;;;;;;;11.60;9.93;;;17.50;97.20;;;;;;5093618;28;20433;-74
2021/10/31 12:34:43;;;;;;;12.67;8.83;;;17.60;97.10;;;;;;5093438;28;20436;-75
2021/10/31 12:37:21;;;;;;;11.93;10.47;;;17.60;97.10;;;;;;5093721;28;20511;-72
2021/10/31 12:40:07;;;;;;;10.73;9.47;;;17.70;97.10;;;;;;5093556;28;20969;-72
2021/10/31 12:43:05;;;;;;;11.87;9.27;;;17.70;97.10;;;;;;5093713;28;20420;-72
2021/10/31 12:45:34;;;;;;;12.70;8.83;;;17.80;97.00;;;;;;5093705;28;20453;-72
2021/10/31 12:48:11;;;;;;;11.03;9.40;;;17.80;97.00;;;;;;5093627;28;20482;-72
2021/10/31 12:50:52;;;;;;;12.00;9.50;;;17.90;96.50;;;;;;5094585;28;20452;-75
2021/10/31 12:53:28;;;;;;;10.73;8.23;;;17.90;96.30;;;;;;5093526;28;20521;-74
2021/10/31 12:55:57;;;;;;;11.67;9.00;;;18.00;96.20;;;;;;5093266;28;20477;-75
2021/10/31 12:58:30;;;;;;;14.20;9.70;;;18.00;95.90;;;;;;5092787;28;20765;-74
2021/10/31 13:01:04;;;;;;;10.37;9.37;;;18.00;96.00;;;;;;5094519;28;20460;-74
2021/10/31 13:03:32;;;;;;;11.37;9.10;;;18.00;95.90;;;;;;5092492;28;20465;-74